sensor_id;sensor_type;location;lat;lon;timestamp;P1;durP1;ratioP1;P2;durP2;ratioP2
41711;SDS011;27399;51.516;13.670;2023-08-07T00:00:26;5.50;;;2.05;;
41711;SDS011;27399;51.516;13.670;2023-08-07T00:02:52;5.15;;;2.63;;
41711;SDS011;27399;51.516;13.670;2023-08-07T00:05:18;2.28;;;1.83;;
41711;SDS011;27399;51.516;13.670;2023-08-07T00:07:43;2.90;;;1.83;;
41711;SDS011;27399;51.516;13.670;2023-08-07T00:10:09;3.65;;;1.80;;
41711;SDS011;27399;51.516;13.670;2023-08-07T00:12:35;5.00;;;2.72;;
41711;SDS011;27399;51.516;13.670;2023-08-07T00:15:01;2.67;;;2.35;;
41711;SDS011;27399;51.516;13.670;2023-08-07T00:17:28;5.85;;;2.67;;
41711;SDS011;27399;51.516;13.670;2023-08-07T00:19:54;6.85;;;2.65;;
41711;SDS011;27399;51.516;13.670;2023-08-07T00:22:19;3.83;;;2.15;;
41711;SDS011;27399;51.516;13.670;2023-08-07T00:24:45;3.53;;;2.25;;
41711;SDS011;27399;51.516;13.670;2023-08-07T00:27:11;3.33;;;2.00;;
41711;SDS011;27399;51.516;13.670;2023-08-07T00:29:37;3.28;;;1.90;;
41711;SDS011;27399;51.516;13.670;2023-08-07T00:32:03;2.97;;;1.67;;
41711;SDS011;27399;51.516;13.670;2023-08-07T00:34:29;4.32;;;1.70;;
41711;SDS011;27399;51.516;13.670;2023-08-07T00:36:55;12.65;;;1.75;;
41711;SDS011;27399;51.516;13.670;2023-08-07T00:39:21;2.20;;;1.75;;
41711;SDS011;27399;51.516;13.670;2023-08-07T00:41:47;2.35;;;1.33;;
41711;SDS011;27399;51.516;13.670;2023-08-07T00:44:13;2.85;;;1.80;;
41711;SDS011;27399;51.516;13.670;2023-08-07T00:46:39;5.20;;;1.90;;
41711;SDS011;27399;51.516;13.670;2023-08-07T00:49:05;2.15;;;1.52;;
41711;SDS011;27399;51.516;13.670;2023-08-07T00:51:32;4.57;;;1.52;;
41711;SDS011;27399;51.516;13.670;2023-08-07T00:53:58;4.55;;;1.67;;
41711;SDS011;27399;51.516;13.670;2023-08-07T00:56:26;5.97;;;1.42;;
41711;SDS011;27399;51.516;13.670;2023-08-07T00:58:52;4.97;;;1.48;;
41711;SDS011;27399;51.516;13.670;2023-08-07T01:01:18;3.35;;;1.27;;
41711;SDS011;27399;51.516;13.670;2023-08-07T01:03:44;5.15;;;1.40;;
41711;SDS011;27399;51.516;13.670;2023-08-07T01:06:10;1.95;;;1.35;;
41711;SDS011;27399;51.516;13.670;2023-08-07T01:08:35;2.42;;;1.50;;
41711;SDS011;27399;51.516;13.670;2023-08-07T01:16:17;3.80;;;1.63;;
41711;SDS011;27399;51.516;13.670;2023-08-07T01:18:46;4.32;;;2.20;;
41711;SDS011;27399;51.516;13.670;2023-08-07T01:21:17;2.90;;;1.85;;
41711;SDS011;27399;51.516;13.670;2023-08-07T01:23:45;5.57;;;1.93;;
41711;SDS011;27399;51.516;13.670;2023-08-07T01:26:18;2.65;;;1.92;;
41711;SDS011;27399;51.516;13.670;2023-08-07T01:29:05;3.08;;;2.20;;
41711;SDS011;27399;51.516;13.670;2023-08-07T01:31:40;2.65;;;2.20;;
41711;SDS011;27399;51.516;13.670;2023-08-07T01:34:08;6.22;;;2.55;;
41711;SDS011;27399;51.516;13.670;2023-08-07T01:36:36;4.47;;;3.03;;
41711;SDS011;27399;51.516;13.670;2023-08-07T01:39:04;6.28;;;2.95;;
41711;SDS011;27399;51.516;13.670;2023-08-07T01:41:32;5.22;;;3.50;;
41711;SDS011;27399;51.516;13.670;2023-08-07T01:43:58;4.65;;;3.33;;
41711;SDS011;27399;51.516;13.670;2023-08-07T01:46:24;6.20;;;3.55;;
41711;SDS011;27399;51.516;13.670;2023-08-07T01:48:50;7.10;;;3.58;;
41711;SDS011;27399;51.516;13.670;2023-08-07T01:51:15;6.78;;;3.65;;
41711;SDS011;27399;51.516;13.670;2023-08-07T01:53:41;6.13;;;4.10;;
41711;SDS011;27399;51.516;13.670;2023-08-07T01:56:07;5.68;;;3.95;;
41711;SDS011;27399;51.516;13.670;2023-08-07T01:58:32;6.82;;;4.05;;
41711;SDS011;27399;51.516;13.670;2023-08-07T02:00:58;6.38;;;3.85;;
41711;SDS011;27399;51.516;13.670;2023-08-07T02:03:24;9.73;;;4.60;;
41711;SDS011;27399;51.516;13.670;2023-08-07T02:05:49;8.90;;;3.72;;
41711;SDS011;27399;51.516;13.670;2023-08-07T02:08:15;6.45;;;4.65;;
41711;SDS011;27399;51.516;13.670;2023-08-07T02:10:41;7.07;;;4.40;;
41711;SDS011;27399;51.516;13.670;2023-08-07T02:13:06;13.32;;;4.88;;
41711;SDS011;27399;51.516;13.670;2023-08-07T02:15:32;6.40;;;4.20;;
41711;SDS011;27399;51.516;13.670;2023-08-07T02:17:57;5.53;;;4.35;;
41711;SDS011;27399;51.516;13.670;2023-08-07T02:20:23;11.40;;;4.75;;
41711;SDS011;27399;51.516;13.670;2023-08-07T02:22:49;6.68;;;4.28;;
41711;SDS011;27399;51.516;13.670;2023-08-07T02:25:15;7.20;;;4.50;;
41711;SDS011;27399;51.516;13.670;2023-08-07T02:27:40;6.95;;;4.35;;
41711;SDS011;27399;51.516;13.670;2023-08-07T02:30:06;18.63;;;4.55;;
41711;SDS011;27399;51.516;13.670;2023-08-07T02:32:32;8.77;;;4.30;;
41711;SDS011;27399;51.516;13.670;2023-08-07T02:34:58;8.15;;;5.07;;
41711;SDS011;27399;51.516;13.670;2023-08-07T02:37:24;7.80;;;5.03;;
41711;SDS011;27399;51.516;13.670;2023-08-07T02:39:49;5.97;;;4.85;;
41711;SDS011;27399;51.516;13.670;2023-08-07T02:42:15;13.80;;;5.18;;
41711;SDS011;27399;51.516;13.670;2023-08-07T02:44:40;7.90;;;4.38;;
41711;SDS011;27399;51.516;13.670;2023-08-07T02:47:06;7.13;;;4.88;;
41711;SDS011;27399;51.516;13.670;2023-08-07T02:49:32;6.05;;;4.45;;
41711;SDS011;27399;51.516;13.670;2023-08-07T02:51:57;10.27;;;4.97;;
41711;SDS011;27399;51.516;13.670;2023-08-07T02:54:23;12.18;;;5.43;;
41711;SDS011;27399;51.516;13.670;2023-08-07T02:56:49;5.65;;;3.63;;
41711;SDS011;27399;51.516;13.670;2023-08-07T02:59:15;12.60;;;4.65;;
41711;SDS011;27399;51.516;13.670;2023-08-07T03:01:41;7.03;;;3.78;;
41711;SDS011;27399;51.516;13.670;2023-08-07T03:04:08;5.90;;;3.70;;
41711;SDS011;27399;51.516;13.670;2023-08-07T03:06:34;8.55;;;3.65;;
41711;SDS011;27399;51.516;13.670;2023-08-07T03:08:59;6.55;;;3.42;;
41711;SDS011;27399;51.516;13.670;2023-08-07T03:11:25;6.00;;;4.22;;
41711;SDS011;27399;51.516;13.670;2023-08-07T03:13:51;6.93;;;3.30;;
41711;SDS011;27399;51.516;13.670;2023-08-07T03:16:16;5.60;;;3.40;;
41711;SDS011;27399;51.516;13.670;2023-08-07T03:18:42;8.85;;;3.47;;
41711;SDS011;27399;51.516;13.670;2023-08-07T03:21:08;5.05;;;3.40;;
41711;SDS011;27399;51.516;13.670;2023-08-07T03:23:34;4.25;;;2.42;;
41711;SDS011;27399;51.516;13.670;2023-08-07T03:26:03;7.05;;;3.90;;
41711;SDS011;27399;51.516;13.670;2023-08-07T03:28:32;6.32;;;2.80;;
41711;SDS011;27399;51.516;13.670;2023-08-07T03:30:59;5.10;;;3.20;;
41711;SDS011;27399;51.516;13.670;2023-08-07T03:33:24;3.65;;;2.47;;
41711;SDS011;27399;51.516;13.670;2023-08-07T03:35:50;5.30;;;2.92;;
41711;SDS011;27399;51.516;13.670;2023-08-07T03:38:16;7.07;;;3.58;;
41711;SDS011;27399;51.516;13.670;2023-08-07T03:40:41;7.07;;;2.90;;
41711;SDS011;27399;51.516;13.670;2023-08-07T03:43:07;10.23;;;3.40;;
41711;SDS011;27399;51.516;13.670;2023-08-07T03:45:33;5.38;;;3.40;;
41711;SDS011;27399;51.516;13.670;2023-08-07T03:47:58;5.22;;;2.80;;
41711;SDS011;27399;51.516;13.670;2023-08-07T03:50:24;8.45;;;3.08;;
41711;SDS011;27399;51.516;13.670;2023-08-07T03:52:49;5.95;;;2.88;;
41711;SDS011;27399;51.516;13.670;2023-08-07T03:55:15;4.20;;;2.72;;
41711;SDS011;27399;51.516;13.670;2023-08-07T03:57:41;8.07;;;3.72;;
41711;SDS011;27399;51.516;13.670;2023-08-07T04:00:07;8.82;;;3.75;;
41711;SDS011;27399;51.516;13.670;2023-08-07T04:02:33;7.90;;;3.50;;
41711;SDS011;27399;51.516;13.670;2023-08-07T04:04:58;5.20;;;3.17;;
41711;SDS011;27399;51.516;13.670;2023-08-07T04:07:24;8.65;;;3.55;;
41711;SDS011;27399;51.516;13.670;2023-08-07T04:09:49;6.45;;;3.88;;
41711;SDS011;27399;51.516;13.670;2023-08-07T04:12:15;9.55;;;4.47;;
41711;SDS011;27399;51.516;13.670;2023-08-07T04:14:41;8.30;;;3.58;;
41711;SDS011;27399;51.516;13.670;2023-08-07T04:17:06;5.50;;;4.03;;
41711;SDS011;27399;51.516;13.670;2023-08-07T04:19:32;5.15;;;3.40;;
41711;SDS011;27399;51.516;13.670;2023-08-07T04:21:58;8.23;;;4.45;;
41711;SDS011;27399;51.516;13.670;2023-08-07T04:24:23;6.53;;;4.05;;
41711;SDS011;27399;51.516;13.670;2023-08-07T04:26:49;8.88;;;4.22;;
41711;SDS011;27399;51.516;13.670;2023-08-07T04:29:14;8.88;;;4.05;;
41711;SDS011;27399;51.516;13.670;2023-08-07T04:31:40;8.95;;;4.53;;
41711;SDS011;27399;51.516;13.670;2023-08-07T04:34:05;7.18;;;4.40;;
41711;SDS011;27399;51.516;13.670;2023-08-07T04:36:31;10.57;;;4.93;;
41711;SDS011;27399;51.516;13.670;2023-08-07T04:38:58;7.75;;;4.55;;
41711;SDS011;27399;51.516;13.670;2023-08-07T04:41:23;9.30;;;4.38;;
41711;SDS011;27399;51.516;13.670;2023-08-07T04:43:49;7.63;;;4.40;;
41711;SDS011;27399;51.516;13.670;2023-08-07T04:46:15;7.78;;;4.63;;
41711;SDS011;27399;51.516;13.670;2023-08-07T04:48:41;8.52;;;4.95;;
41711;SDS011;27399;51.516;13.670;2023-08-07T04:51:06;10.13;;;4.40;;
41711;SDS011;27399;51.516;13.670;2023-08-07T04:53:32;7.32;;;4.45;;
41711;SDS011;27399;51.516;13.670;2023-08-07T04:56:02;8.88;;;5.28;;
41711;SDS011;27399;51.516;13.670;2023-08-07T04:58:27;10.88;;;5.30;;
41711;SDS011;27399;51.516;13.670;2023-08-07T05:00:56;12.35;;;5.22;;
41711;SDS011;27399;51.516;13.670;2023-08-07T05:03:22;9.80;;;5.38;;
41711;SDS011;27399;51.516;13.670;2023-08-07T05:05:49;10.35;;;7.18;;
41711;SDS011;27399;51.516;13.670;2023-08-07T05:08:14;11.88;;;6.05;;
41711;SDS011;27399;51.516;13.670;2023-08-07T05:10:40;8.25;;;6.15;;
41711;SDS011;27399;51.516;13.670;2023-08-07T05:13:06;11.10;;;8.18;;
41711;SDS011;27399;51.516;13.670;2023-08-07T05:15:32;10.50;;;7.57;;
41711;SDS011;27399;51.516;13.670;2023-08-07T05:17:57;14.98;;;9.52;;
41711;SDS011;27399;51.516;13.670;2023-08-07T05:20:23;9.82;;;6.97;;
41711;SDS011;27399;51.516;13.670;2023-08-07T05:22:49;13.25;;;7.47;;
41711;SDS011;27399;51.516;13.670;2023-08-07T05:25:15;13.75;;;8.15;;
41711;SDS011;27399;51.516;13.670;2023-08-07T05:27:42;15.60;;;8.40;;
41711;SDS011;27399;51.516;13.670;2023-08-07T05:30:08;19.25;;;8.10;;
41711;SDS011;27399;51.516;13.670;2023-08-07T05:32:34;12.65;;;8.00;;
41711;SDS011;27399;51.516;13.670;2023-08-07T05:35:05;15.50;;;8.20;;
41711;SDS011;27399;51.516;13.670;2023-08-07T05:37:35;9.63;;;7.53;;
41711;SDS011;27399;51.516;13.670;2023-08-07T05:40:02;11.10;;;7.85;;
41711;SDS011;27399;51.516;13.670;2023-08-07T05:42:28;11.55;;;6.97;;
41711;SDS011;27399;51.516;13.670;2023-08-07T05:44:54;12.13;;;7.60;;
41711;SDS011;27399;51.516;13.670;2023-08-07T05:47:19;9.65;;;6.63;;
41711;SDS011;27399;51.516;13.670;2023-08-07T05:49:45;11.30;;;6.97;;
41711;SDS011;27399;51.516;13.670;2023-08-07T05:52:10;10.63;;;6.55;;
41711;SDS011;27399;51.516;13.670;2023-08-07T05:54:36;9.60;;;6.32;;
41711;SDS011;27399;51.516;13.670;2023-08-07T05:57:02;12.15;;;6.88;;
41711;SDS011;27399;51.516;13.670;2023-08-07T05:59:28;8.60;;;6.60;;
41711;SDS011;27399;51.516;13.670;2023-08-07T06:01:53;10.65;;;6.57;;
41711;SDS011;27399;51.516;13.670;2023-08-07T06:04:20;14.77;;;7.22;;
41711;SDS011;27399;51.516;13.670;2023-08-07T06:06:46;8.02;;;6.35;;
41711;SDS011;27399;51.516;13.670;2023-08-07T06:09:12;9.07;;;6.25;;
41711;SDS011;27399;51.516;13.670;2023-08-07T06:11:40;10.10;;;7.32;;
41711;SDS011;27399;51.516;13.670;2023-08-07T06:14:06;11.15;;;6.32;;
41711;SDS011;27399;51.516;13.670;2023-08-07T06:16:32;7.10;;;5.95;;
41711;SDS011;27399;51.516;13.670;2023-08-07T06:18:58;10.45;;;6.63;;
41711;SDS011;27399;51.516;13.670;2023-08-07T06:21:24;8.95;;;5.88;;
41711;SDS011;27399;51.516;13.670;2023-08-07T06:23:49;6.18;;;5.40;;
41711;SDS011;27399;51.516;13.670;2023-08-07T06:26:15;9.73;;;5.07;;
41711;SDS011;27399;51.516;13.670;2023-08-07T06:28:41;7.88;;;4.90;;
41711;SDS011;27399;51.516;13.670;2023-08-07T06:31:08;11.10;;;5.13;;
41711;SDS011;27399;51.516;13.670;2023-08-07T06:33:36;11.10;;;5.32;;
41711;SDS011;27399;51.516;13.670;2023-08-07T06:36:02;7.03;;;3.75;;
41711;SDS011;27399;51.516;13.670;2023-08-07T06:38:29;7.88;;;4.35;;
41711;SDS011;27399;51.516;13.670;2023-08-07T06:40:55;5.05;;;4.00;;
41711;SDS011;27399;51.516;13.670;2023-08-07T06:43:21;10.07;;;4.43;;
41711;SDS011;27399;51.516;13.670;2023-08-07T06:45:49;6.07;;;4.05;;
41711;SDS011;27399;51.516;13.670;2023-08-07T06:48:15;5.95;;;3.70;;
41711;SDS011;27399;51.516;13.670;2023-08-07T06:50:41;7.72;;;3.60;;
41711;SDS011;27399;51.516;13.670;2023-08-07T06:53:06;8.02;;;3.95;;
41711;SDS011;27399;51.516;13.670;2023-08-07T06:55:32;11.15;;;4.50;;
41711;SDS011;27399;51.516;13.670;2023-08-07T06:57:58;6.75;;;4.28;;
41711;SDS011;27399;51.516;13.670;2023-08-07T07:00:24;6.70;;;3.40;;
41711;SDS011;27399;51.516;13.670;2023-08-07T07:02:50;7.82;;;3.75;;
41711;SDS011;27399;51.516;13.670;2023-08-07T07:05:16;6.30;;;3.75;;
41711;SDS011;27399;51.516;13.670;2023-08-07T07:07:41;10.93;;;4.65;;
41711;SDS011;27399;51.516;13.670;2023-08-07T07:10:07;7.53;;;4.30;;
41711;SDS011;27399;51.516;13.670;2023-08-07T07:12:33;5.47;;;4.32;;
41711;SDS011;27399;51.516;13.670;2023-08-07T07:14:59;5.53;;;3.67;;
41711;SDS011;27399;51.516;13.670;2023-08-07T07:17:24;6.55;;;4.32;;
41711;SDS011;27399;51.516;13.670;2023-08-07T07:19:50;9.40;;;5.43;;
41711;SDS011;27399;51.516;13.670;2023-08-07T07:22:15;7.13;;;4.50;;
41711;SDS011;27399;51.516;13.670;2023-08-07T07:24:41;5.90;;;3.80;;
41711;SDS011;27399;51.516;13.670;2023-08-07T07:27:07;9.18;;;4.15;;
41711;SDS011;27399;51.516;13.670;2023-08-07T07:29:32;5.60;;;4.03;;
41711;SDS011;27399;51.516;13.670;2023-08-07T07:31:58;7.97;;;4.32;;
41711;SDS011;27399;51.516;13.670;2023-08-07T07:34:24;6.45;;;3.80;;
41711;SDS011;27399;51.516;13.670;2023-08-07T07:36:49;4.70;;;3.20;;
41711;SDS011;27399;51.516;13.670;2023-08-07T07:39:16;8.35;;;3.90;;
41711;SDS011;27399;51.516;13.670;2023-08-07T07:41:42;7.88;;;4.15;;
41711;SDS011;27399;51.516;13.670;2023-08-07T07:44:07;8.60;;;3.13;;
41711;SDS011;27399;51.516;13.670;2023-08-07T07:46:33;7.43;;;4.03;;
41711;SDS011;27399;51.516;13.670;2023-08-07T07:48:59;12.25;;;3.63;;
41711;SDS011;27399;51.516;13.670;2023-08-07T07:51:26;5.57;;;3.05;;
41711;SDS011;27399;51.516;13.670;2023-08-07T07:53:51;7.50;;;2.97;;
41711;SDS011;27399;51.516;13.670;2023-08-07T07:56:18;5.72;;;3.25;;
41711;SDS011;27399;51.516;13.670;2023-08-07T07:58:43;4.45;;;2.65;;
41711;SDS011;27399;51.516;13.670;2023-08-07T08:01:09;5.95;;;3.03;;
41711;SDS011;27399;51.516;13.670;2023-08-07T08:03:35;4.38;;;2.75;;
41711;SDS011;27399;51.516;13.670;2023-08-07T08:06:00;5.95;;;2.67;;
41711;SDS011;27399;51.516;13.670;2023-08-07T08:08:26;6.53;;;2.85;;
41711;SDS011;27399;51.516;13.670;2023-08-07T08:10:52;5.18;;;2.35;;
41711;SDS011;27399;51.516;13.670;2023-08-07T08:13:18;7.63;;;3.00;;
41711;SDS011;27399;51.516;13.670;2023-08-07T08:15:44;4.85;;;2.55;;
41711;SDS011;27399;51.516;13.670;2023-08-07T08:18:10;3.47;;;2.58;;
41711;SDS011;27399;51.516;13.670;2023-08-07T08:20:37;4.63;;;2.45;;
41711;SDS011;27399;51.516;13.670;2023-08-07T08:23:03;5.47;;;2.42;;
41711;SDS011;27399;51.516;13.670;2023-08-07T08:25:30;6.50;;;2.45;;
41711;SDS011;27399;51.516;13.670;2023-08-07T08:27:56;9.90;;;2.92;;
41711;SDS011;27399;51.516;13.670;2023-08-07T08:30:22;3.50;;;2.30;;
41711;SDS011;27399;51.516;13.670;2023-08-07T08:32:47;5.95;;;1.90;;
41711;SDS011;27399;51.516;13.670;2023-08-07T08:35:13;3.63;;;2.15;;
41711;SDS011;27399;51.516;13.670;2023-08-07T08:37:39;5.72;;;2.45;;
41711;SDS011;27399;51.516;13.670;2023-08-07T08:40:05;5.47;;;2.10;;
41711;SDS011;27399;51.516;13.670;2023-08-07T08:42:33;4.25;;;2.33;;
41711;SDS011;27399;51.516;13.670;2023-08-07T08:44:59;4.72;;;1.77;;
41711;SDS011;27399;51.516;13.670;2023-08-07T08:47:27;7.00;;;2.20;;
41711;SDS011;27399;51.516;13.670;2023-08-07T08:50:10;5.57;;;1.85;;
41711;SDS011;27399;51.516;13.670;2023-08-07T08:52:38;3.53;;;1.90;;
41711;SDS011;27399;51.516;13.670;2023-08-07T08:55:07;6.22;;;1.92;;
41711;SDS011;27399;51.516;13.670;2023-08-07T08:57:34;2.38;;;1.55;;
41711;SDS011;27399;51.516;13.670;2023-08-07T09:00:00;3.40;;;2.00;;
41711;SDS011;27399;51.516;13.670;2023-08-07T09:02:35;3.90;;;1.60;;
41711;SDS011;27399;51.516;13.670;2023-08-07T09:05:01;4.28;;;1.70;;
41711;SDS011;27399;51.516;13.670;2023-08-07T09:07:27;2.10;;;1.30;;
41711;SDS011;27399;51.516;13.670;2023-08-07T09:09:53;3.65;;;1.60;;
41711;SDS011;27399;51.516;13.670;2023-08-07T09:12:22;6.00;;;2.13;;
41711;SDS011;27399;51.516;13.670;2023-08-07T09:14:53;2.38;;;1.60;;
41711;SDS011;27399;51.516;13.670;2023-08-07T09:17:23;4.50;;;1.40;;
41711;SDS011;27399;51.516;13.670;2023-08-07T09:19:52;3.67;;;1.60;;
41711;SDS011;27399;51.516;13.670;2023-08-07T09:22:18;1.85;;;1.48;;
41711;SDS011;27399;51.516;13.670;2023-08-07T09:24:45;3.42;;;1.80;;
41711;SDS011;27399;51.516;13.670;2023-08-07T09:27:11;4.25;;;1.63;;
41711;SDS011;27399;51.516;13.670;2023-08-07T09:29:39;6.38;;;2.08;;
41711;SDS011;27399;51.516;13.670;2023-08-07T09:32:08;2.55;;;1.75;;
41711;SDS011;27399;51.516;13.670;2023-08-07T09:34:38;3.38;;;1.60;;
41711;SDS011;27399;51.516;13.670;2023-08-07T09:39:36;5.05;;;1.50;;
41711;SDS011;27399;51.516;13.670;2023-08-07T09:42:03;6.03;;;1.77;;
41711;SDS011;27399;51.516;13.670;2023-08-07T09:44:38;3.10;;;1.60;;
41711;SDS011;27399;51.516;13.670;2023-08-07T09:47:13;5.60;;;1.70;;
41711;SDS011;27399;51.516;13.670;2023-08-07T09:49:40;5.70;;;1.60;;
41711;SDS011;27399;51.516;13.670;2023-08-07T09:52:06;4.25;;;1.40;;
41711;SDS011;27399;51.516;13.670;2023-08-07T09:54:33;3.40;;;1.83;;
41711;SDS011;27399;51.516;13.670;2023-08-07T09:56:59;4.30;;;1.30;;
41711;SDS011;27399;51.516;13.670;2023-08-07T09:59:27;3.10;;;1.42;;
41711;SDS011;27399;51.516;13.670;2023-08-07T10:01:54;4.68;;;1.17;;
41711;SDS011;27399;51.516;13.670;2023-08-07T10:04:21;7.25;;;2.15;;
41711;SDS011;27399;51.516;13.670;2023-08-07T10:06:47;4.05;;;1.63;;
41711;SDS011;27399;51.516;13.670;2023-08-07T10:09:13;1.55;;;1.35;;
41711;SDS011;27399;51.516;13.670;2023-08-07T10:11:39;2.78;;;1.40;;
41711;SDS011;27399;51.516;13.670;2023-08-07T10:14:05;2.15;;;1.40;;
41711;SDS011;27399;51.516;13.670;2023-08-07T10:16:31;3.90;;;1.65;;
41711;SDS011;27399;51.516;13.670;2023-08-07T10:18:57;3.60;;;1.67;;
41711;SDS011;27399;51.516;13.670;2023-08-07T10:21:23;2.72;;;1.77;;
41711;SDS011;27399;51.516;13.670;2023-08-07T10:23:51;3.33;;;1.60;;
41711;SDS011;27399;51.516;13.670;2023-08-07T10:26:18;2.53;;;1.63;;
41711;SDS011;27399;51.516;13.670;2023-08-07T10:28:45;4.63;;;2.03;;
41711;SDS011;27399;51.516;13.670;2023-08-07T10:31:13;2.22;;;1.48;;
41711;SDS011;27399;51.516;13.670;2023-08-07T10:33:40;3.20;;;1.92;;
41711;SDS011;27399;51.516;13.670;2023-08-07T10:36:10;4.20;;;1.80;;
41711;SDS011;27399;51.516;13.670;2023-08-07T10:38:36;3.80;;;1.50;;
41711;SDS011;27399;51.516;13.670;2023-08-07T10:41:06;2.75;;;1.65;;
41711;SDS011;27399;51.516;13.670;2023-08-07T10:43:40;4.28;;;1.77;;
41711;SDS011;27399;51.516;13.670;2023-08-07T10:46:10;3.00;;;1.77;;
41711;SDS011;27399;51.516;13.670;2023-08-07T10:51:06;3.08;;;1.63;;
41711;SDS011;27399;51.516;13.670;2023-08-07T10:53:34;3.72;;;1.40;;
41711;SDS011;27399;51.516;13.670;2023-08-07T10:56:06;3.58;;;1.60;;
41711;SDS011;27399;51.516;13.670;2023-08-07T10:58:40;2.58;;;1.30;;
41711;SDS011;27399;51.516;13.670;2023-08-07T11:03:48;3.50;;;1.10;;
41711;SDS011;27399;51.516;13.670;2023-08-07T11:06:17;2.92;;;0.80;;
41711;SDS011;27399;51.516;13.670;2023-08-07T11:08:47;1.08;;;0.93;;
41711;SDS011;27399;51.516;13.670;2023-08-07T11:11:14;2.80;;;1.33;;
41711;SDS011;27399;51.516;13.670;2023-08-07T11:13:39;5.65;;;1.25;;
41711;SDS011;27399;51.516;13.670;2023-08-07T11:16:05;4.32;;;1.42;;
41711;SDS011;27399;51.516;13.670;2023-08-07T11:18:31;1.55;;;0.90;;
41711;SDS011;27399;51.516;13.670;2023-08-07T11:20:57;2.90;;;1.00;;
41711;SDS011;27399;51.516;13.670;2023-08-07T11:23:24;2.13;;;1.10;;
41711;SDS011;27399;51.516;13.670;2023-08-07T11:25:51;2.28;;;1.00;;
41711;SDS011;27399;51.516;13.670;2023-08-07T11:28:18;1.42;;;0.90;;
41711;SDS011;27399;51.516;13.670;2023-08-07T11:30:50;1.20;;;0.70;;
41711;SDS011;27399;51.516;13.670;2023-08-07T11:33:18;1.73;;;0.90;;
41711;SDS011;27399;51.516;13.670;2023-08-07T11:35:45;2.45;;;0.90;;
41711;SDS011;27399;51.516;13.670;2023-08-07T11:38:16;1.17;;;0.80;;
41711;SDS011;27399;51.516;13.670;2023-08-07T11:41:04;3.72;;;0.70;;
41711;SDS011;27399;51.516;13.670;2023-08-07T11:43:31;1.30;;;0.88;;
41711;SDS011;27399;51.516;13.670;2023-08-07T11:46:00;2.85;;;0.77;;
41711;SDS011;27399;51.516;13.670;2023-08-07T11:48:28;1.50;;;0.98;;
41711;SDS011;27399;51.516;13.670;2023-08-07T11:50:55;1.10;;;1.00;;
41711;SDS011;27399;51.516;13.670;2023-08-07T11:53:22;3.10;;;1.05;;
41711;SDS011;27399;51.516;13.670;2023-08-07T11:58:19;2.63;;;1.17;;
41711;SDS011;27399;51.516;13.670;2023-08-07T12:00:46;1.92;;;0.95;;
41711;SDS011;27399;51.516;13.670;2023-08-07T12:03:30;4.32;;;0.95;;
41711;SDS011;27399;51.516;13.670;2023-08-07T12:06:04;1.70;;;0.77;;
41711;SDS011;27399;51.516;13.670;2023-08-07T12:08:40;1.90;;;0.90;;
41711;SDS011;27399;51.516;13.670;2023-08-07T12:11:07;1.98;;;0.85;;
41711;SDS011;27399;51.516;13.670;2023-08-07T12:13:37;1.38;;;0.88;;
41711;SDS011;27399;51.516;13.670;2023-08-07T12:16:07;1.95;;;0.98;;
41711;SDS011;27399;51.516;13.670;2023-08-07T12:18:33;5.30;;;1.00;;
41711;SDS011;27399;51.516;13.670;2023-08-07T12:21:04;1.73;;;0.90;;
41711;SDS011;27399;51.516;13.670;2023-08-07T12:23:34;1.38;;;0.80;;
41711;SDS011;27399;51.516;13.670;2023-08-07T12:26:02;1.10;;;0.80;;
41711;SDS011;27399;51.516;13.670;2023-08-07T12:28:30;1.45;;;0.75;;
41711;SDS011;27399;51.516;13.670;2023-08-07T12:30:56;1.15;;;0.73;;
41711;SDS011;27399;51.516;13.670;2023-08-07T12:33:22;4.43;;;1.05;;
41711;SDS011;27399;51.516;13.670;2023-08-07T12:35:47;1.00;;;0.70;;
41711;SDS011;27399;51.516;13.670;2023-08-07T12:38:13;1.40;;;0.70;;
41711;SDS011;27399;51.516;13.670;2023-08-07T12:40:39;0.88;;;0.82;;
41711;SDS011;27399;51.516;13.670;2023-08-07T12:43:06;1.33;;;0.90;;
41711;SDS011;27399;51.516;13.670;2023-08-07T12:45:32;1.20;;;0.80;;
41711;SDS011;27399;51.516;13.670;2023-08-07T12:47:58;2.63;;;0.60;;
41711;SDS011;27399;51.516;13.670;2023-08-07T12:50:25;1.58;;;0.80;;
41711;SDS011;27399;51.516;13.670;2023-08-07T12:52:51;1.58;;;0.80;;
41711;SDS011;27399;51.516;13.670;2023-08-07T12:55:16;5.00;;;0.77;;
41711;SDS011;27399;51.516;13.670;2023-08-07T12:57:43;1.45;;;0.73;;
41711;SDS011;27399;51.516;13.670;2023-08-07T13:00:09;1.95;;;0.85;;
41711;SDS011;27399;51.516;13.670;2023-08-07T13:02:42;1.52;;;0.75;;
41711;SDS011;27399;51.516;13.670;2023-08-07T13:05:09;3.05;;;0.95;;
41711;SDS011;27399;51.516;13.670;2023-08-07T13:07:36;1.42;;;0.70;;
41711;SDS011;27399;51.516;13.670;2023-08-07T13:10:04;2.33;;;1.00;;
41711;SDS011;27399;51.516;13.670;2023-08-07T13:12:33;5.75;;;1.02;;
41711;SDS011;27399;51.516;13.670;2023-08-07T13:15:00;0.77;;;0.73;;
41711;SDS011;27399;51.516;13.670;2023-08-07T13:17:25;1.35;;;0.73;;
41711;SDS011;27399;51.516;13.670;2023-08-07T13:19:51;4.45;;;0.90;;
41711;SDS011;27399;51.516;13.670;2023-08-07T13:22:17;0.73;;;0.55;;
41711;SDS011;27399;51.516;13.670;2023-08-07T13:24:42;3.53;;;1.30;;
41711;SDS011;27399;51.516;13.670;2023-08-07T13:27:08;1.45;;;0.93;;
41711;SDS011;27399;51.516;13.670;2023-08-07T13:29:34;3.05;;;1.20;;
41711;SDS011;27399;51.516;13.670;2023-08-07T13:31:59;3.75;;;1.30;;
41711;SDS011;27399;51.516;13.670;2023-08-07T13:34:25;1.10;;;0.90;;
41711;SDS011;27399;51.516;13.670;2023-08-07T13:36:51;1.90;;;0.90;;
41711;SDS011;27399;51.516;13.670;2023-08-07T13:39:16;2.10;;;0.70;;
41711;SDS011;27399;51.516;13.670;2023-08-07T13:41:42;2.15;;;0.98;;
41711;SDS011;27399;51.516;13.670;2023-08-07T13:44:08;2.47;;;0.82;;
41711;SDS011;27399;51.516;13.670;2023-08-07T13:46:33;1.92;;;1.10;;
41711;SDS011;27399;51.516;13.670;2023-08-07T13:48:59;1.65;;;0.90;;
41711;SDS011;27399;51.516;13.670;2023-08-07T13:51:25;2.80;;;0.90;;
41711;SDS011;27399;51.516;13.670;2023-08-07T13:53:50;1.15;;;0.73;;
41711;SDS011;27399;51.516;13.670;2023-08-07T13:56:17;3.70;;;1.23;;
41711;SDS011;27399;51.516;13.670;2023-08-07T13:58:43;2.13;;;0.80;;
41711;SDS011;27399;51.516;13.670;2023-08-07T14:01:09;1.77;;;0.90;;
41711;SDS011;27399;51.516;13.670;2023-08-07T14:03:34;1.75;;;1.00;;
41711;SDS011;27399;51.516;13.670;2023-08-07T14:06:00;3.65;;;1.20;;
41711;SDS011;27399;51.516;13.670;2023-08-07T14:08:26;2.20;;;0.70;;
41711;SDS011;27399;51.516;13.670;2023-08-07T14:10:52;2.80;;;0.75;;
41711;SDS011;27399;51.516;13.670;2023-08-07T14:13:17;1.85;;;0.75;;
41711;SDS011;27399;51.516;13.670;2023-08-07T14:15:43;2.33;;;0.95;;
41711;SDS011;27399;51.516;13.670;2023-08-07T14:18:09;2.78;;;1.20;;
41711;SDS011;27399;51.516;13.670;2023-08-07T14:20:36;1.17;;;0.60;;
41711;SDS011;27399;51.516;13.670;2023-08-07T14:23:02;1.77;;;0.95;;
41711;SDS011;27399;51.516;13.670;2023-08-07T14:25:28;3.08;;;0.80;;
41711;SDS011;27399;51.516;13.670;2023-08-07T14:27:53;1.15;;;0.60;;
41711;SDS011;27399;51.516;13.670;2023-08-07T14:30:19;1.35;;;0.70;;
41711;SDS011;27399;51.516;13.670;2023-08-07T14:32:45;3.03;;;0.93;;
41711;SDS011;27399;51.516;13.670;2023-08-07T14:35:12;1.15;;;0.63;;
41711;SDS011;27399;51.516;13.670;2023-08-07T14:37:42;1.83;;;0.93;;
41711;SDS011;27399;51.516;13.670;2023-08-07T14:40:08;2.25;;;0.70;;
41711;SDS011;27399;51.516;13.670;2023-08-07T14:42:33;3.15;;;1.00;;
41711;SDS011;27399;51.516;13.670;2023-08-07T14:44:59;6.47;;;1.13;;